Airfield :
LOGIN :

Register | Disclaimer

   EN    FR    IT 

 










Legend :    VFR   Marginal VFR   IFR   Intensive IFR   Very Intensive IFR
Visi :
Ceiling :
>= 8 km
>= 3000ft
5 to 8 km
1000 to 3000 ft
1500m to 5 km
500 to 1000 ft
800 to 1500m
200 to 500 ft
< 800m
< 200 ft
Symbols :   Thunderstorms  Fog  Heavy snow  Heavy precipitations  Wind > 20 kt
SIGMETs :     Misc.  Thunderstorms  Icing  Turbulence  Mountain Waves  Volcanic Ashes







- Airport Elevation : 291 ft
- IATA code : ORY
- Download approach charts


LFPO - Paris-Orly

CURRENT METAR :
  • 191000Z 34005KT 8000 SCT015 BKN068 16/12 Q1007 NOSIG

EXPIRED METARs :
  • 190930Z 35005KT 300V020 8000 SCT012 BKN070 16/12 Q1007 NOSIG
  • 190900Z 33004KT 300V030 7000 SCT010 BKN070 15/13 Q1007 NOSIG
  • 190830Z 33005KT 280V020 6000 SCT007 BKN070 15/13 Q1007 TEMPO BKN009
  • 190800Z 34005KT 300V010 6000 -RA SCT007 BKN066 14/13 Q1007 TEMPO BKN009
  • 190730Z 34005KT 310V010 7000 SCT007 SCT046 BKN260 14/13 Q1007 TEMPO BKN009

TAF TAF LFPO
Valid from the 19 at 06:00 until the 20 at 12:00 UTC


190500Z 1906/2012 33005KT 4000 BCFG SCT002 SCT050
PROB40
TEMPO 1906/1909 6000 BKN009
PROB30
TEMPO 1906/1907 0400 FG BKN002
BECMG 1909/1911 9999 BKN025
TEMPO 1911/1920 4000 -SHRA BKN025TCU
PROB40
TEMPO 1912/1919 36010G20KT 2000 TSRA BKN025CB
PROB30
TEMPO 2003/2006 BKN010
TEMPO 2011/2012 BKN040TCU
ATIS : +33 1 49 75 65 80
No reported NOTAMs for that airfield.



MET'MAP, your aeronautical weather chart ! - Copyright ORBIFLY December 2007 - Disclaimer

ORBIFLY MET'MAP TEAM :

Programming & Development : Alexandra Zaïnal
Concept & Development : Baudouin d'Aumeries
Co-Development & Prog : Marc-Olivier Méhu
Technical & hardware support : Manuel Goepfert

Contact : metmap@orbifly.com




SOURCES & CREDITS :

   NOAA